Time,TemperatureF,DewpointF,PressureIn,WindDirection,WindDirectionDegrees,WindSpeedMPH,WindSpeedGustMPH,Humidity,HourlyPrecipIn,Conditions,Clouds,dailyrainin,SoftwareType,DateUTC
2013-03-05 00:07:00,29.8,21.6,29.86,WSW,247,2.2,-999.0,71,-99.99,,,0.00,Acu-Link.com,2013-03-05 05:07:00,
2013-03-05 00:22:00,29.8,22.5,29.86,WSW,247,2.2,-999.0,74,-99.99,,,0.00,Acu-Link.com,2013-03-05 05:22:00,
2013-03-05 00:38:00,29.8,22.2,29.87,WSW,247,1.1,-999.0,73,-99.99,,,0.00,Acu-Link.com,2013-03-05 05:38:00,
2013-03-05 00:53:00,29.7,21.8,29.87,WSW,247,0.0,-999.0,72,-99.99,,,0.00,Acu-Link.com,2013-03-05 05:53:00,
2013-03-05 01:08:00,29.1,21.2,29.87,WSW,247,0.0,-999.0,72,-99.99,,,0.00,Acu-Link.com,2013-03-05 06:08:00,
2013-03-05 01:24:00,29.5,22.3,29.87,WSW,247,0.0,-999.0,74,-99.99,,,0.00,Acu-Link.com,2013-03-05 06:24:00,
2013-03-05 01:39:00,29.3,21.7,29.87,WSW,247,1.1,-999.0,73,-99.99,,,0.00,Acu-Link.com,2013-03-05 06:39:00,
2013-03-05 01:54:00,29.3,21.7,29.88,WSW,247,1.7,-999.0,73,-99.99,,,0.00,Acu-Link.com,2013-03-05 06:54:00,
2013-03-05 02:09:00,28.8,20.9,29.87,WSW,247,1.7,-999.0,72,-99.99,,,0.00,Acu-Link.com,2013-03-05 07:09:00,
2013-03-05 02:25:00,28.6,21.1,29.87,WSW,247,2.2,-999.0,73,-99.99,,,0.00,Acu-Link.com,2013-03-05 07:25:00,
2013-03-05 02:40:00,28.4,21.2,29.88,WSW,247,2.2,-999.0,74,-99.99,,,0.00,Acu-Link.com,2013-03-05 07:40:00,
2013-03-05 02:55:00,27.9,21.0,29.89,WSW,247,0.0,-999.0,75,-99.99,,,0.00,Acu-Link.com,2013-03-05 07:55:00,
2013-03-05 03:10:00,27.9,21.3,29.89,WSW,247,2.7,-999.0,76,-99.99,,,0.00,Acu-Link.com,2013-03-05 08:10:00,
2013-03-05 03:26:00,27.7,21.1,29.89,WSW,247,0.0,-999.0,76,-99.99,,,0.00,Acu-Link.com,2013-03-05 08:26:00,
2013-03-05 03:41:00,27.3,20.8,29.89,WSW,247,2.7,-999.0,76,-99.99,,,0.00,Acu-Link.com,2013-03-05 08:41:00,
2013-03-05 03:56:00,27.5,20.6,29.89,WSW,247,0.0,-999.0,75,-99.99,,,0.00,Acu-Link.com,2013-03-05 08:56:00,
2013-03-05 04:11:00,27.3,19.8,29.90,WSW,247,0.0,-999.0,73,-99.99,,,0.00,Acu-Link.com,2013-03-05 09:11:00,
2013-03-05 04:27:00,28.0,21.4,29.89,WSW,247,1.7,-999.0,76,-99.99,,,0.00,Acu-Link.com,2013-03-05 09:27:00,
2013-03-05 04:42:00,28.0,20.5,29.90,WSW,247,1.7,-999.0,73,-99.99,,,0.00,Acu-Link.com,2013-03-05 09:42:00,
2013-03-05 04:57:00,28.8,21.9,29.90,WSW,247,0.0,-999.0,75,-99.99,,,0.00,Acu-Link.com,2013-03-05 09:57:00,
2013-03-05 05:13:00,29.3,22.7,29.90,WSW,247,0.0,-999.0,76,-99.99,,,0.00,Acu-Link.com,2013-03-05 10:13:00,
2013-03-05 05:28:00,29.5,21.9,29.90,WSW,247,0.0,-999.0,73,-99.99,,,0.00,Acu-Link.com,2013-03-05 10:28:00,
2013-03-05 05:43:00,28.9,22.3,29.90,WSW,247,0.0,-999.0,76,-99.99,,,0.00,Acu-Link.com,2013-03-05 10:43:00,
2013-03-05 05:58:00,28.9,22.9,29.90,WSW,247,0.0,-999.0,78,-99.99,,,0.00,Acu-Link.com,2013-03-05 10:58:00,
2013-03-05 06:13:00,28.4,22.1,29.90,WSW,247,0.0,-999.0,77,-99.99,,,0.00,Acu-Link.com,2013-03-05 11:13:00,
2013-03-05 06:29:00,28.2,22.2,29.90,WSW,247,0.0,-999.0,78,-99.99,,,0.00,Acu-Link.com,2013-03-05 11:29:00,
2013-03-05 06:44:00,28.6,22.6,29.90,WSW,247,0.0,-999.0,78,-99.99,,,0.00,Acu-Link.com,2013-03-05 11:44:00,
2013-03-05 06:59:00,30.4,25.0,29.90,WSW,247,0.0,-999.0,80,-99.99,,,0.00,Acu-Link.com,2013-03-05 11:59:00,
2013-03-05 07:15:00,30.7,24.0,29.90,WSW,247,0.0,-999.0,76,-99.99,,,0.00,Acu-Link.com,2013-03-05 12:15:00,
2013-03-05 07:30:00,31.8,25.4,29.90,WSW,247,0.0,-999.0,77,-99.99,,,0.00,Acu-Link.com,2013-03-05 12:30:00,
2013-03-05 07:45:00,33.4,26.7,29.90,WSW,247,0.0,-999.0,76,-99.99,,,0.00,Acu-Link.com,2013-03-05 12:45:00,
2013-03-05 08:01:00,34.7,26.6,29.91,WSW,247,0.0,-999.0,72,-99.99,,,0.00,Acu-Link.com,2013-03-05 13:01:00,
2013-03-05 08:16:00,37.0,25.2,29.91,WSW,247,0.0,-999.0,62,-99.99,,,0.00,Acu-Link.com,2013-03-05 13:16:00,
2013-03-05 08:31:00,38.8,23.6,29.91,WSW,247,1.7,-999.0,54,-99.99,,,0.00,Acu-Link.com,2013-03-05 13:31:00,
2013-03-05 08:46:00,40.3,24.1,29.91,WSW,247,1.7,-999.0,52,-99.99,,,0.00,Acu-Link.com,2013-03-05 13:46:00,
2013-03-05 09:02:00,41.5,23.8,29.91,WSW,247,2.2,-999.0,49,-99.99,,,0.00,Acu-Link.com,2013-03-05 14:02:00,
2013-03-05 09:17:00,41.2,24.0,29.91,East,90,1.1,-999.0,50,-99.99,,,0.00,Acu-Link.com,2013-03-05 14:17:00,
2013-03-05 09:32:00,41.4,22.7,29.91,SSW,202,2.7,-999.0,47,-99.99,,,0.00,Acu-Link.com,2013-03-05 14:32:00,
2013-03-05 09:48:00,41.4,22.7,29.90,SW,225,3.2,-999.0,47,-99.99,,,0.00,Acu-Link.com,2013-03-05 14:48:00,
2013-03-05 10:03:00,41.9,24.2,29.89,ENE,67,2.2,-999.0,49,-99.99,,,0.00,Acu-Link.com,2013-03-05 15:03:00,
2013-03-05 10:18:00,41.9,23.7,29.88,ENE,67,3.7,-999.0,48,-99.99,,,0.00,Acu-Link.com,2013-03-05 15:18:00,
2013-03-05 10:33:00,41.9,25.1,29.88,ENE,67,3.2,-999.0,51,-99.99,,,0.00,Acu-Link.com,2013-03-05 15:33:00,
2013-03-05 10:49:00,43.9,26.5,29.88,East,90,0.0,-999.0,50,-99.99,,,0.00,Acu-Link.com,2013-03-05 15:49:00,
2013-03-05 11:04:00,44.4,25.4,29.87,ENE,67,1.7,-999.0,47,-99.99,,,0.00,Acu-Link.com,2013-03-05 16:04:00,
2013-03-05 11:19:00,44.2,24.7,29.86,East,90,2.2,-999.0,46,-99.99,,,0.00,Acu-Link.com,2013-03-05 16:19:00,
2013-03-05 11:34:00,45.1,26.1,29.85,SW,225,2.7,-999.0,47,-99.99,,,0.00,Acu-Link.com,2013-03-05 16:34:00,
2013-03-05 11:49:00,44.4,25.4,29.84,East,90,3.2,-999.0,47,-99.99,,,0.00,Acu-Link.com,2013-03-05 16:49:00,
2013-03-05 12:04:00,47.1,26.3,29.84,SSW,202,2.7,-999.0,44,-99.99,,,0.00,Acu-Link.com,2013-03-05 17:04:00,
2013-03-05 12:19:00,46.6,24.8,29.83,South,180,3.2,-999.0,42,-99.99,,,0.00,Acu-Link.com,2013-03-05 17:19:00,
2013-03-05 12:35:00,47.7,24.6,29.83,SW,225,2.2,-999.0,40,-99.99,,,0.00,Acu-Link.com,2013-03-05 17:35:00,
2013-03-05 12:50:00,47.7,25.2,29.82,NE,45,3.2,-999.0,41,-99.99,,,0.00,Acu-Link.com,2013-03-05 17:50:00,
2013-03-05 13:05:00,47.5,25.0,29.81,South,180,2.7,-999.0,41,-99.99,,,0.00,Acu-Link.com,2013-03-05 18:05:00,
2013-03-05 13:20:00,47.5,25.6,29.80,West,270,3.2,-999.0,42,-99.99,,,0.00,Acu-Link.com,2013-03-05 18:20:00,
2013-03-05 13:36:00,48.7,26.1,29.80,East,90,5.3,-999.0,41,-99.99,,,0.00,Acu-Link.com,2013-03-05 18:36:00,
2013-03-05 13:51:00,48.2,25.6,29.79,WSW,247,1.7,-999.0,41,-99.99,,,0.00,Acu-Link.com,2013-03-05 18:51:00,
2013-03-05 14:06:00,48.4,25.8,29.77,East,90,1.7,-999.0,41,-99.99,,,0.00,Acu-Link.com,2013-03-05 19:06:00,
2013-03-05 14:21:00,49.5,27.9,29.77,WNW,292,2.2,-999.0,43,-99.99,,,0.00,Acu-Link.com,2013-03-05 19:21:00,
2013-03-05 14:37:00,48.6,27.7,29.76,East,90,3.2,-999.0,44,-99.99,,,0.00,Acu-Link.com,2013-03-05 19:37:00,
2013-03-05 14:52:00,49.3,27.8,29.76,WNW,292,1.1,-999.0,43,-99.99,,,0.00,Acu-Link.com,2013-03-05 19:52:00,
2013-03-05 15:07:00,49.5,28.5,29.76,East,90,2.2,-999.0,44,-99.99,,,0.00,Acu-Link.com,2013-03-05 20:07:00,
2013-03-05 15:22:00,48.9,28.5,29.76,WNW,292,2.7,-999.0,45,-99.99,,,0.00,Acu-Link.com,2013-03-05 20:22:00,
2013-03-05 15:37:00,48.6,28.8,29.76,NE,45,1.7,-999.0,46,-99.99,,,0.00,Acu-Link.com,2013-03-05 20:37:00,
2013-03-05 15:52:00,48.2,28.4,29.75,West,270,2.2,-999.0,46,-99.99,,,0.00,Acu-Link.com,2013-03-05 20:52:00,
2013-03-05 16:08:00,47.7,29.5,29.75,SSW,202,2.7,-999.0,49,-99.99,,,0.00,Acu-Link.com,2013-03-05 21:08:00,
2013-03-05 16:23:00,47.3,29.6,29.74,NNW,337,0.0,-999.0,50,-99.99,,,0.00,Acu-Link.com,2013-03-05 21:23:00,
2013-03-05 16:38:00,46.9,30.2,29.74,East,90,1.7,-999.0,52,-99.99,,,0.00,Acu-Link.com,2013-03-05 21:38:00,
2013-03-05 16:53:00,46.9,31.1,29.74,West,270,2.2,-999.0,54,-99.99,,,0.00,Acu-Link.com,2013-03-05 21:53:00,
2013-03-05 17:09:00,46.6,32.2,29.74,SW,225,2.2,-999.0,57,-99.99,,,0.00,Acu-Link.com,2013-03-05 22:09:00,
2013-03-05 17:24:00,45.7,36.8,29.74,SW,225,1.7,-999.0,71,-99.99,,,0.00,Acu-Link.com,2013-03-05 22:24:00,
2013-03-05 17:39:00,45.1,37.7,29.74,SW,225,0.0,-999.0,75,-99.99,,,0.00,Acu-Link.com,2013-03-05 22:39:00,
2013-03-05 17:55:00,44.8,37.7,29.73,West,270,2.7,-999.0,76,-99.99,,,0.00,Acu-Link.com,2013-03-05 22:55:00,
2013-03-05 18:10:00,44.8,37.0,29.72,East,90,1.1,-999.0,74,-99.99,,,0.00,Acu-Link.com,2013-03-05 23:10:00,
2013-03-05 18:25:00,44.4,37.3,29.72,East,90,0.0,-999.0,76,-99.99,,,0.00,Acu-Link.com,2013-03-05 23:25:00,
2013-03-05 18:40:00,43.5,37.4,29.71,East,90,2.7,-999.0,79,-99.99,,,0.00,Acu-Link.com,2013-03-05 23:40:00,
2013-03-05 18:55:00,43.2,37.5,29.71,NNW,337,2.2,-999.0,80,-99.99,,,0.00,Acu-Link.com,2013-03-05 23:55:00,
2013-03-05 19:10:00,41.5,37.6,29.71,SSE,157,2.7,-999.0,86,-99.99,,,0.00,Acu-Link.com,2013-03-06 00:10:00,
2013-03-05 19:26:00,40.6,37.9,29.70,ESE,112,2.7,-999.0,90,-99.99,,,0.01,Acu-Link.com,2013-03-06 00:26:00,
2013-03-05 19:41:00,39.7,38.9,29.70,ENE,67,2.7,-999.0,97,-99.99,,,0.03,Acu-Link.com,2013-03-06 00:41:00,
2013-03-05 19:56:00,39.4,38.9,29.70,ENE,67,2.2,-999.0,98,-99.99,,,0.05,Acu-Link.com,2013-03-06 00:56:00,
2013-03-05 20:11:00,38.7,38.2,29.69,ENE,67,4.2,-999.0,98,-99.99,,,0.07,Acu-Link.com,2013-03-06 01:11:00,
2013-03-05 20:26:00,37.4,36.9,29.68,East,90,3.2,-999.0,98,-99.99,,,0.11,Acu-Link.com,2013-03-06 01:26:00,
2013-03-05 20:41:00,36.7,36.2,29.66,ENE,67,3.7,-999.0,98,-99.99,,,0.13,Acu-Link.com,2013-03-06 01:41:00,
2013-03-05 20:57:00,36.5,36.0,29.65,East,90,4.2,-999.0,98,-99.99,,,0.14,Acu-Link.com,2013-03-06 01:57:00,
2013-03-05 21:12:00,36.5,36.0,29.64,ENE,67,4.2,-999.0,98,-99.99,,,0.17,Acu-Link.com,2013-03-06 02:12:00,
2013-03-05 21:27:00,36.7,36.2,29.63,East,90,3.2,-999.0,98,-99.99,,,0.17,Acu-Link.com,2013-03-06 02:27:00,
2013-03-05 21:42:00,36.1,35.6,29.60,ESE,112,3.7,-999.0,98,-99.99,,,0.18,Acu-Link.com,2013-03-06 02:42:00,
2013-03-05 21:58:00,36.3,35.8,29.60,ENE,67,5.3,-999.0,98,-99.99,,,0.18,Acu-Link.com,2013-03-06 02:58:00,
2013-03-05 22:13:00,36.3,35.8,29.59,ENE,67,4.7,-999.0,98,-99.99,,,0.20,Acu-Link.com,2013-03-06 03:13:00,
2013-03-05 22:28:00,36.3,35.8,29.59,East,90,1.7,-999.0,98,-99.99,,,0.21,Acu-Link.com,2013-03-06 03:28:00,
2013-03-05 22:44:00,36.1,35.6,29.58,ENE,67,3.2,-999.0,98,-99.99,,,0.24,Acu-Link.com,2013-03-06 03:44:00,
2013-03-05 23:05:00,36.0,35.5,29.57,East,90,2.2,-999.0,98,-99.99,,,0.35,Acu-Link.com,2013-03-06 04:05:00,
2013-03-05 23:21:00,36.0,35.5,29.55,East,90,4.2,-999.0,98,-99.99,,,0.38,Acu-Link.com,2013-03-06 04:21:00,
2013-03-05 23:36:00,36.0,35.5,29.54,East,90,2.2,-999.0,98,-99.99,,,0.42,Acu-Link.com,2013-03-06 04:36:00,
2013-03-05 23:54:00,36.0,35.5,29.52,East,90,3.2,-999.0,98,-99.99,,,0.44,Acu-Link.com,2013-03-06 04:54:00,